createdAt,value
2022-09-02T00:01:38.018Z,100754.14
2022-09-02T00:04:21.528Z,100751.51
2022-09-02T00:06:54.220Z,100746.91
2022-09-02T00:09:26.053Z,100749.11
2022-09-02T00:11:56.572Z,100748.90
2022-09-02T00:14:33.500Z,100746.84
2022-09-02T00:17:03.794Z,100746.67
2022-09-02T00:19:32.344Z,100754.55
2022-09-02T00:22:02.572Z,100750.58
2022-09-02T00:24:31.530Z,100747.73
2022-09-02T00:27:00.100Z,100750.53
2022-09-02T00:29:29.058Z,100749.61
2022-09-02T00:31:57.562Z,100753.97
2022-09-02T00:34:26.433Z,100752.82
2022-09-02T00:36:54.793Z,100754.62
2022-09-02T00:39:23.147Z,100754.22
2022-09-02T00:41:51.729Z,100757.19
2022-09-02T00:44:22.898Z,100754.89
2022-09-02T00:46:51.206Z,100753.83
2022-09-02T00:49:36.241Z,100751.63
2022-09-02T00:52:20.904Z,100750.67
2022-09-02T00:54:56.771Z,100750.34
2022-09-02T00:57:34.543Z,100753.80
2022-09-02T01:00:17.798Z,100751.17
2022-09-02T01:02:55.072Z,100750.05
2022-09-02T01:05:29.775Z,100752.08
2022-09-02T01:07:59.172Z,100750.45
2022-09-02T01:10:35.110Z,100751.14
2022-09-02T01:13:12.015Z,100754.23
2022-09-02T01:15:46.200Z,100754.06
2022-09-02T01:18:20.911Z,100753.76
2022-09-02T01:20:49.280Z,100754.28
2022-09-02T01:23:19.362Z,100752.75
2022-09-02T01:25:48.605Z,100747.67
2022-09-02T01:28:20.059Z,100749.67
2022-09-02T01:30:53.711Z,100748.05
2022-09-02T01:33:25.396Z,100748.55
2022-09-02T01:35:54.930Z,100751.49
2022-09-02T01:38:26.020Z,100754.13
2022-09-02T01:40:54.536Z,100756.38
2022-09-02T01:43:26.577Z,100760.55
2022-09-02T01:45:58.644Z,100760.77
2022-09-02T01:48:27.401Z,100762.54
2022-09-02T01:51:01.587Z,100758.88
2022-09-02T01:53:31.668Z,100756.13
2022-09-02T01:56:00.393Z,100753.84
2022-09-02T01:58:28.891Z,100752.09
2022-09-02T02:00:57.321Z,100747.10
2022-09-02T02:03:26.087Z,100742.36
2022-09-02T02:05:55.489Z,100747.02
2022-09-02T02:08:24.350Z,100744.73
2022-09-02T02:10:52.703Z,100748.48
2022-09-02T02:13:21.082Z,100746.81
2022-09-02T02:15:49.565Z,100744.45
2022-09-02T02:18:18.008Z,100741.41
2022-09-02T02:20:46.344Z,100741.05
2022-09-02T02:23:14.855Z,100737.98
2022-09-02T02:25:43.656Z,100741.34
2022-09-02T02:28:12.003Z,100743.44
2022-09-02T02:30:40.403Z,100740.27
2022-09-02T02:33:08.752Z,100740.98
2022-09-02T02:35:37.140Z,100739.97
2022-09-02T02:38:05.707Z,100740.49
2022-09-02T02:40:34.211Z,100740.52
2022-09-02T02:43:02.534Z,100741.04
2022-09-02T02:45:30.821Z,100738.44
2022-09-02T02:47:59.590Z,100738.63
2022-09-02T02:50:28.100Z,100737.11
2022-09-02T02:52:56.670Z,100737.19
2022-09-02T02:55:26.231Z,100736.48
2022-09-02T02:57:54.664Z,100738.52
2022-09-02T03:00:28.662Z,100737.94
2022-09-02T03:03:05.635Z,100742.36
2022-09-02T03:05:37.804Z,100740.34
2022-09-02T03:08:09.906Z,100736.44
2022-09-02T03:10:42.044Z,100738.61
2022-09-02T03:13:12.082Z,100735.36
2022-09-02T03:15:40.532Z,100733.10
2022-09-02T03:18:09.134Z,100731.71
2022-09-02T03:20:39.952Z,100733.05
2022-09-02T03:23:08.834Z,100733.05
2022-09-02T03:25:42.866Z,100733.68
2022-09-02T03:28:35.824Z,100734.69
2022-09-02T03:31:05.490Z,100731.38
2022-09-02T03:33:34.415Z,100730.52
2022-09-02T03:36:03.102Z,100728.50
2022-09-02T03:38:31.426Z,100729.92
2022-09-02T03:40:59.773Z,100728.98
2022-09-02T03:43:28.204Z,100731.13
2022-09-02T03:45:56.762Z,100734.33
2022-09-02T03:48:25.117Z,100740.33
2022-09-02T03:50:53.430Z,100733.27
2022-09-02T03:53:21.893Z,100735.27
2022-09-02T03:55:50.863Z,100732.71
2022-09-02T03:58:19.886Z,100735.27
2022-09-02T04:00:54.769Z,100735.10
2022-09-02T04:03:23.516Z,100733.95
2022-09-02T04:05:52.578Z,100734.59
2022-09-02T04:08:21.795Z,100734.02
2022-09-02T04:10:50.716Z,100735.25
2022-09-02T04:13:19.472Z,100735.10
2022-09-02T04:15:49.220Z,100737.59
2022-09-02T04:18:18.464Z,100742.34
2022-09-02T04:20:46.994Z,100741.94
2022-09-02T04:23:16.602Z,100743.16
2022-09-02T04:25:45.311Z,100743.77
2022-09-02T04:28:13.612Z,100744.70
2022-09-02T04:30:43.414Z,100747.41
2022-09-02T04:33:12.321Z,100748.30
2022-09-02T04:35:48.193Z,100743.23
2022-09-02T04:38:17.888Z,100746.58
2022-09-02T04:40:47.860Z,100743.15
2022-09-02T04:43:16.337Z,100745.80
2022-09-02T04:45:46.446Z,100744.90
2022-09-02T04:48:15.240Z,100742.35
2022-09-02T04:50:43.589Z,100742.99
2022-09-02T04:53:12.464Z,100742.53
2022-09-02T04:55:42.679Z,100740.83
2022-09-02T04:58:11.674Z,100740.37
2022-09-02T05:00:40.369Z,100742.87
2022-09-02T05:03:08.800Z,100741.02
2022-09-02T05:05:39.155Z,100743.55
2022-09-02T05:08:07.889Z,100740.23
2022-09-02T05:10:36.527Z,100741.26
2022-09-02T05:13:05.030Z,100740.19
2022-09-02T05:15:33.549Z,100736.91
2022-09-02T05:18:01.980Z,100740.70
2022-09-02T05:20:32.307Z,100737.39
2022-09-02T05:26:13.605Z,100741.08
2022-09-02T05:28:43.546Z,100736.86
2022-09-02T05:31:18.116Z,100739.42
2022-09-02T05:33:47.678Z,100733.02
2022-09-02T05:36:20.496Z,100734.89
2022-09-02T05:38:49.783Z,100733.02
2022-09-02T05:41:24.287Z,100737.91
2022-09-02T05:43:56.337Z,100738.13
2022-09-02T05:46:26.057Z,100731.63
2022-09-02T05:49:07.832Z,100733.02
2022-09-02T05:51:55.926Z,100729.69
2022-09-02T05:54:40.995Z,100731.98
2022-09-02T05:57:14.466Z,100733.70
2022-09-02T05:59:44.194Z,100736.90
2022-09-02T06:02:14.981Z,100740.10
2022-09-02T06:04:49.289Z,100740.77
2022-09-02T06:07:36.679Z,100737.49
2022-09-02T06:10:07.596Z,100739.55
2022-09-02T06:12:39.482Z,100742.31
2022-09-02T06:15:12.543Z,100742.13
2022-09-02T06:17:40.904Z,100740.84
2022-09-02T06:20:10.027Z,100739.58
2022-09-02T06:22:40.164Z,100740.94
2022-09-02T06:25:27.696Z,100739.85
2022-09-02T06:28:06.375Z,100737.05
2022-09-02T06:30:43.438Z,100741.02
2022-09-02T06:33:12.108Z,100740.84
2022-09-02T06:35:45.388Z,100738.55
2022-09-02T06:38:17.625Z,100740.80
2022-09-02T06:40:50.437Z,100739.86
2022-09-02T06:43:20.166Z,100737.46
2022-09-02T06:45:48.824Z,100739.52
2022-09-02T06:48:17.266Z,100744.30
2022-09-02T06:50:50.083Z,100743.41
2022-09-02T06:53:19.459Z,100743.91
2022-09-02T06:55:49.072Z,100745.23
2022-09-02T06:58:17.963Z,100746.92
2022-09-02T07:01:29.415Z,100744.21
2022-09-02T07:04:19.028Z,100745.70
2022-09-02T07:06:52.754Z,100747.39
2022-09-02T07:09:31.331Z,100750.94
2022-09-02T07:12:04.585Z,100745.52
2022-09-02T07:14:42.390Z,100749.88
2022-09-02T07:17:17.690Z,100750.14
2022-09-02T07:19:46.074Z,100751.40
2022-09-02T07:22:15.074Z,100753.16
2022-09-02T07:24:47.434Z,100755.30
2022-09-02T07:27:15.903Z,100757.90
2022-09-02T07:29:45.976Z,100753.23
2022-09-02T07:32:18.787Z,100754.06
2022-09-02T07:34:47.506Z,100751.16
2022-09-02T07:37:15.871Z,100754.08
2022-09-02T07:39:45.338Z,100751.96
2022-09-02T07:42:14.081Z,100756.65
2022-09-02T07:44:42.572Z,100758.48
2022-09-02T07:47:10.934Z,100760.36
2022-09-02T07:52:29.447Z,100753.77
2022-09-02T07:54:58.136Z,100751.95
2022-09-02T07:57:26.667Z,100747.84
2022-09-02T07:59:54.960Z,100742.73
2022-09-02T08:02:23.636Z,100745.11
2022-09-02T08:04:52.071Z,100741.17
2022-09-02T08:07:24.356Z,100742.06
2022-09-02T08:09:53.010Z,100743.02
2022-09-02T08:12:22.445Z,100741.77
2022-09-02T08:14:51.196Z,100737.11
2022-09-02T08:17:19.700Z,100734.36
2022-09-02T08:19:48.134Z,100735.89
2022-09-02T08:22:16.493Z,100738.53
2022-09-02T08:25:11.700Z,100740.23
2022-09-02T08:27:41.328Z,100736.93
2022-09-02T08:30:10.813Z,100734.77
2022-09-02T08:32:40.498Z,100733.45
2022-09-02T08:35:10.450Z,100732.86
2022-09-02T08:37:39.174Z,100735.25
2022-09-02T08:40:21.752Z,100737.17
2022-09-02T08:42:54.428Z,100733.09
2022-09-02T08:45:28.948Z,100733.36
2022-09-02T08:48:10.650Z,100733.41
2022-09-02T08:50:44.250Z,100731.69
2022-09-02T08:53:32.571Z,100728.14
2022-09-02T08:56:03.696Z,100731.96
2022-09-02T08:58:47.267Z,100726.01
2022-09-02T09:01:32.501Z,100725.42
2022-09-02T09:04:18.856Z,100722.30
2022-09-02T09:07:08.768Z,100717.82
2022-09-02T09:10:32.256Z,100722.70
2022-09-02T09:13:20.566Z,100729.13
2022-09-02T09:16:08.200Z,100726.53
2022-09-02T09:18:48.811Z,100725.67
2022-09-02T09:21:19.171Z,100723.88
2022-09-02T09:23:49.460Z,100719.65
2022-09-02T09:26:26.518Z,100714.71
2022-09-02T09:28:56.624Z,100709.69
2022-09-02T09:31:31.185Z,100705.44
2022-09-02T09:34:12.740Z,100708.73
2022-09-02T09:36:40.996Z,100709.76
2022-09-02T09:39:31.537Z,100702.39
2022-09-02T09:42:03.630Z,100702.70
2022-09-02T09:44:46.486Z,100701.41
2022-09-02T09:47:22.916Z,100703.52
2022-09-02T09:50:09.247Z,100695.78
2022-09-02T09:52:43.585Z,100694.23
2022-09-02T09:55:24.542Z,100694.11
2022-09-02T09:58:09.698Z,100694.30
2022-09-02T10:00:40.588Z,100689.76
2022-09-02T10:03:43.910Z,100690.23
2022-09-02T10:06:39.548Z,100685.93
2022-09-02T10:09:36.499Z,100686.00
2022-09-02T10:12:27.164Z,100681.56
2022-09-02T10:14:56.094Z,100672.14
2022-09-02T10:17:42.419Z,100674.09
2022-09-02T10:20:22.899Z,100672.08
2022-09-02T10:23:05.840Z,100668.02
2022-09-02T10:25:54.675Z,100671.64
2022-09-02T10:29:11.881Z,100672.42
2022-09-02T10:32:17.677Z,100670.45
2022-09-02T10:35:25.899Z,100668.67
2022-09-02T10:38:52.850Z,100665.68
2022-09-02T10:42:11.107Z,100659.55
2022-09-02T10:45:12.274Z,100660.27
2022-09-02T10:47:41.865Z,100657.35
2022-09-02T10:51:03.173Z,100661.55
2022-09-02T10:54:15.216Z,100664.02
2022-09-02T10:57:12.529Z,100662.63
2022-09-02T10:59:51.363Z,100656.98
2022-09-02T11:02:35.234Z,100656.59
2022-09-02T11:05:27.603Z,100659.35
2022-09-02T11:08:09.913Z,100665.75
2022-09-02T11:11:07.767Z,100660.41
2022-09-02T11:13:56.694Z,100657.65
2022-09-02T11:16:46.112Z,100660.40
2022-09-02T11:19:55.914Z,100654.05
2022-09-02T11:22:54.372Z,100650.44
2022-09-02T11:26:00.290Z,100649.95
2022-09-02T11:28:56.046Z,100644.08
2022-09-02T11:32:05.841Z,100641.78
2022-09-02T11:35:03.765Z,100651.35
2022-09-02T11:38:16.612Z,100648.52
2022-09-02T11:41:36.712Z,100644.90
2022-09-02T11:44:40.812Z,100645.23
2022-09-02T11:47:21.637Z,100645.95
2022-09-02T11:50:45.705Z,100645.92
2022-09-02T11:53:20.543Z,100635.14
2022-09-02T11:56:02.657Z,100633.55
2022-09-02T11:58:44.463Z,100636.61
2022-09-02T12:01:15.869Z,100635.02
2022-09-02T12:07:12.989Z,100632.48
2022-09-02T12:09:48.068Z,100633.20
2022-09-02T12:12:47.837Z,100633.20
2022-09-02T12:15:19.909Z,100630.42
2022-09-02T12:17:52.023Z,100625.14
2022-09-02T12:21:23.388Z,100625.84
2022-09-02T12:24:10.255Z,100626.87
2022-09-02T12:26:53.573Z,100623.98
2022-09-02T12:29:24.769Z,100618.79
2022-09-02T12:31:55.991Z,100617.95
2022-09-02T12:34:24.325Z,100614.01
2022-09-02T12:37:55.697Z,100613.45
2022-09-02T12:40:34.341Z,100613.88
2022-09-02T12:43:17.857Z,100606.59
2022-09-02T12:45:50.995Z,100605.85
2022-09-02T12:48:43.320Z,100604.46
2022-09-02T12:51:54.418Z,100602.45
2022-09-02T12:54:49.664Z,100600.56
2022-09-02T12:57:19.402Z,100596.39
2022-09-02T12:59:48.689Z,100592.00
2022-09-02T13:02:29.579Z,100587.59
2022-09-02T13:06:21.272Z,100588.00
2022-09-02T13:09:46.963Z,100587.10
2022-09-02T13:12:59.122Z,100585.88
2022-09-02T13:16:07.592Z,100586.85
2022-09-02T13:19:32.868Z,100584.24
2022-09-02T13:22:52.560Z,100578.46
2022-09-02T13:26:27.623Z,100575.98
2022-09-02T13:29:47.927Z,100574.29
2022-09-02T13:32:28.803Z,100573.63
2022-09-02T13:35:02.580Z,100569.26
2022-09-02T13:37:39.410Z,100565.90
2022-09-02T13:40:36.470Z,100566.40
2022-09-02T13:43:27.204Z,100559.11
2022-09-02T13:46:04.764Z,100558.91
2022-09-02T13:48:34.321Z,100555.52
2022-09-02T13:51:14.550Z,100553.58
2022-09-02T13:56:36.753Z,100550.74
2022-09-02T13:59:05.157Z,100544.05
2022-09-02T14:01:40.232Z,100535.64
2022-09-02T14:04:17.082Z,100537.82
2022-09-02T14:06:48.017Z,100538.94
2022-09-02T14:09:29.230Z,100541.38
2022-09-02T14:12:00.685Z,100549.70
2022-09-02T14:14:29.341Z,100547.63
2022-09-02T14:17:21.514Z,100548.02
2022-09-02T14:19:51.832Z,100545.24
2022-09-02T14:22:29.454Z,100543.59
2022-09-02T14:24:57.921Z,100543.62
2022-09-02T14:27:26.723Z,100541.77
2022-09-02T14:29:58.174Z,100544.41
2022-09-02T14:32:28.469Z,100536.08
2022-09-02T14:35:17.781Z,100542.73
2022-09-02T14:37:55.877Z,100541.80
2022-09-02T14:40:37.610Z,100547.69
2022-09-02T14:43:16.308Z,100548.70
2022-09-02T14:45:50.106Z,100546.61
2022-09-02T14:48:27.009Z,100545.90
2022-09-02T14:51:03.271Z,100542.15
2022-09-02T14:53:32.468Z,100544.31
2022-09-02T14:56:01.260Z,100538.80
2022-09-02T14:58:30.412Z,100538.23
2022-09-02T15:01:01.203Z,100541.02
2022-09-02T15:03:32.070Z,100541.88
2022-09-02T15:06:00.384Z,100543.85
2022-09-02T15:08:28.796Z,100541.20
2022-09-02T15:11:00.088Z,100541.66
2022-09-02T15:13:35.065Z,100538.35
2022-09-02T15:16:03.933Z,100537.52
2022-09-02T15:18:32.350Z,100538.00
2022-09-02T15:21:01.103Z,100534.71
2022-09-02T15:23:36.256Z,100532.07
2022-09-02T15:26:06.596Z,100532.76
2022-09-02T15:28:38.791Z,100532.73
2022-09-02T15:31:23.791Z,100533.54
2022-09-02T15:34:04.027Z,100527.73
2022-09-02T15:36:39.834Z,100526.39
2022-09-02T15:39:31.229Z,100528.16
2022-09-02T15:42:00.202Z,100526.21
2022-09-02T15:44:29.648Z,100524.02
2022-09-02T15:47:06.195Z,100522.55
2022-09-02T15:49:35.426Z,100522.67
2022-09-02T15:52:06.631Z,100521.77
2022-09-02T15:54:35.071Z,100523.63
2022-09-02T15:57:11.655Z,100522.72
2022-09-02T15:59:42.653Z,100520.84
2022-09-02T16:02:19.918Z,100519.20
2022-09-02T16:04:54.330Z,100517.14
2022-09-02T16:07:31.871Z,100520.61
2022-09-02T16:10:08.338Z,100519.98
2022-09-02T16:12:39.498Z,100520.28
2022-09-02T16:15:14.511Z,100518.48
2022-09-02T16:17:51.148Z,100517.70
2022-09-02T16:20:22.319Z,100516.42
2022-09-02T16:22:54.081Z,100514.13
2022-09-02T16:25:25.593Z,100511.92
2022-09-02T16:27:58.415Z,100515.05
2022-09-02T16:30:35.155Z,100510.10
2022-09-02T16:33:27.754Z,100507.44
2022-09-02T16:36:01.758Z,100502.73
2022-09-02T16:38:30.454Z,100500.38
2022-09-02T16:41:00.164Z,100503.52
2022-09-02T16:43:32.889Z,100505.19
2022-09-02T16:46:08.035Z,100504.47
2022-09-02T16:48:40.780Z,100504.15
2022-09-02T16:51:30.765Z,100504.73
2022-09-02T16:54:30.906Z,100500.71
2022-09-02T16:57:01.561Z,100498.90
2022-09-02T16:59:33.702Z,100502.56
2022-09-02T17:02:03.159Z,100503.80
2022-09-02T17:04:31.551Z,100508.96
2022-09-02T17:07:00.117Z,100505.25
2022-09-02T17:09:28.460Z,100506.73
2022-09-02T17:12:03.312Z,100508.96
2022-09-02T17:14:34.618Z,100505.82
2022-09-02T17:17:06.682Z,100497.23
2022-09-02T17:19:35.176Z,100501.17
2022-09-02T17:22:08.515Z,100502.56
2022-09-02T17:24:42.029Z,100503.92
2022-09-02T17:27:17.293Z,100503.20
2022-09-02T17:29:50.132Z,100496.38
2022-09-02T17:32:27.318Z,100497.98
2022-09-02T17:35:56.921Z,100495.13
2022-09-02T17:38:49.119Z,100498.35
2022-09-02T17:41:54.773Z,100498.39
2022-09-02T17:44:47.079Z,100501.77
2022-09-02T17:47:22.882Z,100503.86
2022-09-02T17:50:17.978Z,100495.62
2022-09-02T17:52:48.979Z,100497.92
2022-09-02T17:55:22.774Z,100494.54
2022-09-02T17:58:21.873Z,100499.48
2022-09-02T18:01:35.353Z,100498.40
2022-09-02T18:04:34.398Z,100502.84
2022-09-02T18:08:08.896Z,100502.41
2022-09-02T18:11:07.137Z,100503.55
2022-09-02T18:14:56.943Z,100498.16
2022-09-02T18:17:55.392Z,100498.52
2022-09-02T18:20:50.353Z,100505.49
2022-09-02T18:24:14.797Z,100504.34
2022-09-02T18:27:18.480Z,100501.61
2022-09-02T18:30:08.063Z,100503.18
2022-09-02T18:33:17.106Z,100504.51
2022-09-02T18:35:57.610Z,100505.82
2022-09-02T18:39:34.260Z,100503.88
2022-09-02T18:42:40.504Z,100508.84
2022-09-02T18:45:25.682Z,100504.82
2022-09-02T18:48:17.941Z,100505.14
2022-09-02T18:51:35.895Z,100510.02
2022-09-02T18:54:57.718Z,100512.73
2022-09-02T18:57:33.659Z,100512.73
2022-09-02T19:00:28.122Z,100514.92
2022-09-02T19:03:29.718Z,100510.64
2022-09-02T19:05:59.904Z,100513.36
2022-09-02T19:08:43.043Z,100512.48
2022-09-02T19:11:22.134Z,100521.34
2022-09-02T19:13:57.324Z,100525.38
2022-09-02T19:16:36.351Z,100527.50
2022-09-02T19:19:19.019Z,100527.81
2022-09-02T19:22:04.333Z,100526.65
2022-09-02T19:24:49.832Z,100524.33
2022-09-02T19:27:22.762Z,100522.58
2022-09-02T19:30:01.473Z,100519.16
2022-09-02T19:32:33.836Z,100521.88
2022-09-02T19:35:09.338Z,100525.37
2022-09-02T19:37:44.564Z,100524.70
2022-09-02T19:40:20.727Z,100528.34
2022-09-02T19:43:05.245Z,100523.05
2022-09-02T19:45:37.504Z,100532.44
2022-09-02T19:48:11.595Z,100532.92
2022-09-02T19:50:43.759Z,100534.16
2022-09-02T19:53:30.597Z,100533.91
2022-09-02T19:56:00.549Z,100534.52
2022-09-02T19:58:28.907Z,100537.94
2022-09-02T20:00:57.299Z,100533.92
2022-09-02T20:03:25.809Z,100532.89
2022-09-02T20:09:15.055Z,100530.45
2022-09-02T20:11:59.151Z,100533.79
2022-09-02T20:14:45.678Z,100530.00
2022-09-02T20:17:19.866Z,100524.11
2022-09-02T20:19:55.723Z,100527.81
2022-09-02T20:22:45.759Z,100525.80
2022-09-02T20:25:18.795Z,100524.05
2022-09-02T20:28:10.112Z,100522.92
2022-09-02T20:30:47.853Z,100520.08
2022-09-02T20:33:22.438Z,100520.98
2022-09-02T20:36:14.208Z,100524.27
2022-09-02T20:39:29.249Z,100525.64
2022-09-02T20:43:04.851Z,100529.45
2022-09-02T20:46:11.924Z,100534.84
2022-09-02T20:49:24.506Z,100533.59
2022-09-02T20:52:08.893Z,100532.98
2022-09-02T20:59:20.877Z,100534.11
2022-09-02T21:02:27.025Z,100528.27
2022-09-02T21:05:30.442Z,100531.30
2022-09-02T21:08:32.262Z,100529.56
2022-09-02T21:11:13.607Z,100537.03
2022-09-02T21:14:52.562Z,100537.38
2022-09-02T21:18:28.517Z,100539.27
2022-09-02T21:21:52.599Z,100542.17
2022-09-02T21:25:05.816Z,100542.06
2022-09-02T21:28:45.240Z,100541.56
2022-09-02T21:32:22.329Z,100533.03
2022-09-02T21:35:19.592Z,100532.05
2022-09-02T21:38:02.476Z,100533.11
2022-09-02T21:41:26.182Z,100532.13
2022-09-02T21:45:20.073Z,100530.56
2022-09-02T21:49:17.145Z,100530.58
2022-09-02T21:52:40.158Z,100519.20
2022-09-02T21:56:40.495Z,100515.31
2022-09-02T21:59:38.023Z,100522.40
2022-09-02T22:03:01.443Z,100524.05
2022-09-02T22:06:41.323Z,100522.57
2022-09-02T22:09:35.157Z,100527.15
2022-09-02T22:12:27.492Z,100526.74
2022-09-02T22:16:14.959Z,100523.55
2022-09-02T22:19:15.416Z,100525.02
2022-09-02T22:21:57.555Z,100523.85
2022-09-02T22:24:37.534Z,100526.58
2022-09-02T22:28:10.935Z,100520.39
2022-09-02T22:31:11.153Z,100517.27
2022-09-02T22:34:08.597Z,100524.84
2022-09-02T22:37:10.513Z,100526.18
2022-09-02T22:40:17.597Z,100526.83
2022-09-02T22:43:23.895Z,100525.16
2022-09-02T22:46:23.030Z,100524.27
2022-09-02T22:49:52.107Z,100523.02
2022-09-02T22:52:54.695Z,100519.90
2022-09-02T22:56:04.932Z,100520.66
2022-09-02T22:59:45.852Z,100524.95
2022-09-02T23:03:08.717Z,100520.15
2022-09-02T23:06:09.814Z,100525.31
2022-09-02T23:08:48.925Z,100521.45
2022-09-02T23:12:54.115Z,100523.32
2022-09-02T23:16:11.865Z,100519.68
2022-09-02T23:19:55.305Z,100519.49
2022-09-02T23:23:08.119Z,100521.30
2022-09-02T23:26:43.128Z,100521.02
2022-09-02T23:29:41.379Z,100518.63
2022-09-02T23:33:28.233Z,100518.84
2022-09-02T23:36:44.420Z,100514.44
2022-09-02T23:40:23.038Z,100516.27
2022-09-02T23:43:27.720Z,100510.21
2022-09-02T23:46:27.289Z,100503.13
2022-09-02T23:50:12.070Z,100503.01
2022-09-02T23:53:37.946Z,100496.48
2022-09-02T23:57:19.589Z,100498.29
